sensor_id;sensor_type;location;lat;lon;timestamp;temperature;humidity
25214;DHT22;13160;51.834;4.706;2022-10-16T00:02:01;14.70;99.90
25214;DHT22;13160;51.834;4.706;2022-10-16T00:04:31;14.90;99.90
25214;DHT22;13160;51.834;4.706;2022-10-16T00:07:01;14.80;99.90
25214;DHT22;13160;51.834;4.706;2022-10-16T00:09:33;14.80;99.90
25214;DHT22;13160;51.834;4.706;2022-10-16T00:12:04;14.80;99.90
25214;DHT22;13160;51.834;4.706;2022-10-16T00:14:34;14.80;99.90
25214;DHT22;13160;51.834;4.706;2022-10-16T00:17:08;14.80;99.90
25214;DHT22;13160;51.834;4.706;2022-10-16T00:19:44;14.80;99.90
25214;DHT22;13160;51.834;4.706;2022-10-16T00:22:17;14.80;99.90
25214;DHT22;13160;51.834;4.706;2022-10-16T00:24:50;14.70;99.90
25214;DHT22;13160;51.834;4.706;2022-10-16T00:27:20;14.70;99.90
25214;DHT22;13160;51.834;4.706;2022-10-16T00:29:55;14.80;99.90
25214;DHT22;13160;51.834;4.706;2022-10-16T00:32:29;14.80;99.90
25214;DHT22;13160;51.834;4.706;2022-10-16T00:35:00;14.80;99.90
25214;DHT22;13160;51.834;4.706;2022-10-16T00:37:42;14.80;99.90
25214;DHT22;13160;51.834;4.706;2022-10-16T00:40:13;14.90;99.90
25214;DHT22;13160;51.834;4.706;2022-10-16T00:42:42;14.80;99.90
25214;DHT22;13160;51.834;4.706;2022-10-16T00:45:12;14.90;99.90
25214;DHT22;13160;51.834;4.706;2022-10-16T00:47:45;14.90;99.90
25214;DHT22;13160;51.834;4.706;2022-10-16T00:50:27;15.00;99.90
25214;DHT22;13160;51.834;4.706;2022-10-16T00:53:00;15.00;99.90
25214;DHT22;13160;51.834;4.706;2022-10-16T00:55:33;15.00;99.90
25214;DHT22;13160;51.834;4.706;2022-10-16T00:58:09;15.00;99.90
25214;DHT22;13160;51.834;4.706;2022-10-16T01:00:47;14.90;99.90
25214;DHT22;13160;51.834;4.706;2022-10-16T01:03:26;15.00;99.90
25214;DHT22;13160;51.834;4.706;2022-10-16T01:06:28;15.00;99.90
25214;DHT22;13160;51.834;4.706;2022-10-16T01:09:13;15.00;99.90
25214;DHT22;13160;51.834;4.706;2022-10-16T01:12:01;15.00;99.90
25214;DHT22;13160;51.834;4.706;2022-10-16T01:15:02;15.00;99.90
25214;DHT22;13160;51.834;4.706;2022-10-16T01:17:46;15.00;99.90
25214;DHT22;13160;51.834;4.706;2022-10-16T01:20:26;14.90;99.90
25214;DHT22;13160;51.834;4.706;2022-10-16T01:23:27;14.90;99.90
25214;DHT22;13160;51.834;4.706;2022-10-16T01:26:19;15.00;99.90
25214;DHT22;13160;51.834;4.706;2022-10-16T01:29:04;14.90;99.90
25214;DHT22;13160;51.834;4.706;2022-10-16T01:31:41;14.90;99.90
25214;DHT22;13160;51.834;4.706;2022-10-16T01:34:22;14.90;99.90
25214;DHT22;13160;51.834;4.706;2022-10-16T01:37:01;14.90;99.90
25214;DHT22;13160;51.834;4.706;2022-10-16T01:39:39;14.80;99.90
25214;DHT22;13160;51.834;4.706;2022-10-16T01:42:16;14.80;99.90
25214;DHT22;13160;51.834;4.706;2022-10-16T01:44:50;14.80;99.90
25214;DHT22;13160;51.834;4.706;2022-10-16T01:47:35;14.70;99.90
25214;DHT22;13160;51.834;4.706;2022-10-16T01:50:18;14.70;99.90
25214;DHT22;13160;51.834;4.706;2022-10-16T01:52:56;14.80;99.90
25214;DHT22;13160;51.834;4.706;2022-10-16T01:55:40;14.80;99.90
25214;DHT22;13160;51.834;4.706;2022-10-16T01:58:18;14.70;99.90
25214;DHT22;13160;51.834;4.706;2022-10-16T02:00:57;14.70;99.90
25214;DHT22;13160;51.834;4.706;2022-10-16T02:03:37;14.70;99.90
25214;DHT22;13160;51.834;4.706;2022-10-16T02:06:15;14.60;99.90
25214;DHT22;13160;51.834;4.706;2022-10-16T02:08:54;14.60;99.90
25214;DHT22;13160;51.834;4.706;2022-10-16T02:11:31;14.50;99.90
25214;DHT22;13160;51.834;4.706;2022-10-16T02:14:08;14.60;99.90
25214;DHT22;13160;51.834;4.706;2022-10-16T02:16:44;14.60;99.90
25214;DHT22;13160;51.834;4.706;2022-10-16T02:19:24;14.60;99.90
25214;DHT22;13160;51.834;4.706;2022-10-16T02:22:17;14.60;99.90
25214;DHT22;13160;51.834;4.706;2022-10-16T02:24:54;14.50;99.90
25214;DHT22;13160;51.834;4.706;2022-10-16T02:27:34;14.50;99.90
25214;DHT22;13160;51.834;4.706;2022-10-16T02:30:19;14.50;99.90
25214;DHT22;13160;51.834;4.706;2022-10-16T02:33:12;14.60;99.90
25214;DHT22;13160;51.834;4.706;2022-10-16T02:35:49;14.50;99.90
25214;DHT22;13160;51.834;4.706;2022-10-16T02:38:22;14.50;99.90
25214;DHT22;13160;51.834;4.706;2022-10-16T02:40:56;14.50;99.90
25214;DHT22;13160;51.834;4.706;2022-10-16T02:43:37;14.50;99.90
25214;DHT22;13160;51.834;4.706;2022-10-16T02:46:20;14.50;99.90
25214;DHT22;13160;51.834;4.706;2022-10-16T02:48:53;14.40;99.90
25214;DHT22;13160;51.834;4.706;2022-10-16T02:51:31;14.50;99.90
25214;DHT22;13160;51.834;4.706;2022-10-16T02:54:04;14.50;99.90
25214;DHT22;13160;51.834;4.706;2022-10-16T02:56:35;14.50;99.90
25214;DHT22;13160;51.834;4.706;2022-10-16T02:59:08;14.50;99.90
25214;DHT22;13160;51.834;4.706;2022-10-16T03:01:37;14.50;99.90
25214;DHT22;13160;51.834;4.706;2022-10-16T03:04:15;14.40;99.90
25214;DHT22;13160;51.834;4.706;2022-10-16T03:06:57;14.40;99.90
25214;DHT22;13160;51.834;4.706;2022-10-16T03:09:32;14.50;99.90
25214;DHT22;13160;51.834;4.706;2022-10-16T03:12:04;14.50;99.90
25214;DHT22;13160;51.834;4.706;2022-10-16T03:14:58;14.40;99.90
25214;DHT22;13160;51.834;4.706;2022-10-16T03:17:48;14.50;99.90
25214;DHT22;13160;51.834;4.706;2022-10-16T03:20:33;14.50;99.90
25214;DHT22;13160;51.834;4.706;2022-10-16T03:23:07;14.40;99.90
25214;DHT22;13160;51.834;4.706;2022-10-16T03:25:44;14.40;99.90
25214;DHT22;13160;51.834;4.706;2022-10-16T03:28:14;14.50;99.90
25214;DHT22;13160;51.834;4.706;2022-10-16T03:30:50;14.40;99.90
25214;DHT22;13160;51.834;4.706;2022-10-16T03:33:26;14.40;99.90
25214;DHT22;13160;51.834;4.706;2022-10-16T03:36:03;14.40;99.90
25214;DHT22;13160;51.834;4.706;2022-10-16T03:38:34;14.40;99.90
25214;DHT22;13160;51.834;4.706;2022-10-16T03:41:14;14.40;99.90
25214;DHT22;13160;51.834;4.706;2022-10-16T03:43:48;14.40;99.90
25214;DHT22;13160;51.834;4.706;2022-10-16T03:46:32;14.40;99.90
25214;DHT22;13160;51.834;4.706;2022-10-16T03:49:05;14.40;99.90
25214;DHT22;13160;51.834;4.706;2022-10-16T03:52:07;14.40;99.90
25214;DHT22;13160;51.834;4.706;2022-10-16T03:54:52;14.50;99.90
25214;DHT22;13160;51.834;4.706;2022-10-16T03:57:31;14.40;99.90
25214;DHT22;13160;51.834;4.706;2022-10-16T04:00:02;14.40;99.90
25214;DHT22;13160;51.834;4.706;2022-10-16T04:02:39;14.40;99.90
25214;DHT22;13160;51.834;4.706;2022-10-16T04:05:10;14.30;99.90
25214;DHT22;13160;51.834;4.706;2022-10-16T04:07:45;14.40;99.90
25214;DHT22;13160;51.834;4.706;2022-10-16T04:10:15;14.40;99.90
25214;DHT22;13160;51.834;4.706;2022-10-16T04:12:49;14.30;99.90
25214;DHT22;13160;51.834;4.706;2022-10-16T04:15:22;14.40;99.90
25214;DHT22;13160;51.834;4.706;2022-10-16T04:17:53;14.40;99.90
25214;DHT22;13160;51.834;4.706;2022-10-16T04:20:22;14.30;99.90
25214;DHT22;13160;51.834;4.706;2022-10-16T04:23:02;14.30;99.90
25214;DHT22;13160;51.834;4.706;2022-10-16T04:25:31;14.30;99.90
25214;DHT22;13160;51.834;4.706;2022-10-16T04:28:03;14.20;99.90
25214;DHT22;13160;51.834;4.706;2022-10-16T04:30:38;14.20;99.90
25214;DHT22;13160;51.834;4.706;2022-10-16T04:33:09;14.20;99.90
25214;DHT22;13160;51.834;4.706;2022-10-16T04:35:39;14.20;99.90
25214;DHT22;13160;51.834;4.706;2022-10-16T04:38:29;14.20;99.90
25214;DHT22;13160;51.834;4.706;2022-10-16T04:41:07;14.20;99.90
25214;DHT22;13160;51.834;4.706;2022-10-16T04:43:41;14.10;99.90
25214;DHT22;13160;51.834;4.706;2022-10-16T04:46:12;14.10;99.90
25214;DHT22;13160;51.834;4.706;2022-10-16T04:48:43;14.10;99.90
25214;DHT22;13160;51.834;4.706;2022-10-16T04:51:17;14.10;99.90
25214;DHT22;13160;51.834;4.706;2022-10-16T04:53:54;14.00;99.90
25214;DHT22;13160;51.834;4.706;2022-10-16T04:56:25;14.00;99.90
25214;DHT22;13160;51.834;4.706;2022-10-16T04:59:00;14.00;99.90
25214;DHT22;13160;51.834;4.706;2022-10-16T05:01:41;14.00;99.90
25214;DHT22;13160;51.834;4.706;2022-10-16T05:04:14;14.00;99.90
25214;DHT22;13160;51.834;4.706;2022-10-16T05:06:48;14.10;99.90
25214;DHT22;13160;51.834;4.706;2022-10-16T05:09:22;14.00;99.90
25214;DHT22;13160;51.834;4.706;2022-10-16T05:12:04;14.00;99.90
25214;DHT22;13160;51.834;4.706;2022-10-16T05:14:40;14.10;99.90
25214;DHT22;13160;51.834;4.706;2022-10-16T05:17:14;14.10;99.90
25214;DHT22;13160;51.834;4.706;2022-10-16T05:19:56;14.00;99.90
25214;DHT22;13160;51.834;4.706;2022-10-16T05:22:32;14.00;99.90
25214;DHT22;13160;51.834;4.706;2022-10-16T05:25:08;14.10;99.90
25214;DHT22;13160;51.834;4.706;2022-10-16T05:27:38;14.10;99.90
25214;DHT22;13160;51.834;4.706;2022-10-16T05:30:15;14.10;99.90
25214;DHT22;13160;51.834;4.706;2022-10-16T05:32:49;14.10;99.90
25214;DHT22;13160;51.834;4.706;2022-10-16T05:35:21;14.20;99.90
25214;DHT22;13160;51.834;4.706;2022-10-16T05:37:55;14.20;99.90
25214;DHT22;13160;51.834;4.706;2022-10-16T05:40:30;14.10;99.90
25214;DHT22;13160;51.834;4.706;2022-10-16T05:43:02;14.20;99.90
25214;DHT22;13160;51.834;4.706;2022-10-16T05:45:31;14.20;99.90
25214;DHT22;13160;51.834;4.706;2022-10-16T05:48:01;14.20;99.90
25214;DHT22;13160;51.834;4.706;2022-10-16T05:50:31;14.20;99.90
25214;DHT22;13160;51.834;4.706;2022-10-16T05:53:00;14.30;99.90
25214;DHT22;13160;51.834;4.706;2022-10-16T05:55:57;14.30;99.90
25214;DHT22;13160;51.834;4.706;2022-10-16T05:58:30;14.20;99.90
25214;DHT22;13160;51.834;4.706;2022-10-16T06:01:05;14.30;99.90
25214;DHT22;13160;51.834;4.706;2022-10-16T06:03:39;14.20;99.90
25214;DHT22;13160;51.834;4.706;2022-10-16T06:06:13;14.30;99.90
25214;DHT22;13160;51.834;4.706;2022-10-16T06:08:48;14.30;99.90
25214;DHT22;13160;51.834;4.706;2022-10-16T06:11:31;14.30;99.90
25214;DHT22;13160;51.834;4.706;2022-10-16T06:14:03;14.30;99.90
25214;DHT22;13160;51.834;4.706;2022-10-16T06:16:35;14.30;99.90
25214;DHT22;13160;51.834;4.706;2022-10-16T06:19:08;14.30;99.90
25214;DHT22;13160;51.834;4.706;2022-10-16T06:22:00;14.40;99.90
25214;DHT22;13160;51.834;4.706;2022-10-16T06:24:45;14.40;99.90
25214;DHT22;13160;51.834;4.706;2022-10-16T06:27:21;14.30;99.90
25214;DHT22;13160;51.834;4.706;2022-10-16T06:29:56;14.30;99.90
25214;DHT22;13160;51.834;4.706;2022-10-16T06:32:40;14.30;99.90
25214;DHT22;13160;51.834;4.706;2022-10-16T06:35:13;14.40;99.90
25214;DHT22;13160;51.834;4.706;2022-10-16T06:37:44;14.40;99.90
25214;DHT22;13160;51.834;4.706;2022-10-16T06:40:16;14.40;99.90
25214;DHT22;13160;51.834;4.706;2022-10-16T06:42:50;14.50;99.90
25214;DHT22;13160;51.834;4.706;2022-10-16T06:45:29;14.40;99.90
25214;DHT22;13160;51.834;4.706;2022-10-16T06:47:57;14.50;99.90
25214;DHT22;13160;51.834;4.706;2022-10-16T06:50:26;14.40;99.90
25214;DHT22;13160;51.834;4.706;2022-10-16T06:52:54;14.50;99.90
25214;DHT22;13160;51.834;4.706;2022-10-16T06:55:22;14.50;99.90
25214;DHT22;13160;51.834;4.706;2022-10-16T06:57:52;14.50;99.90
25214;DHT22;13160;51.834;4.706;2022-10-16T07:00:20;14.50;99.90
25214;DHT22;13160;51.834;4.706;2022-10-16T07:02:53;14.50;99.90
25214;DHT22;13160;51.834;4.706;2022-10-16T07:05:21;14.50;99.90
25214;DHT22;13160;51.834;4.706;2022-10-16T07:07:49;14.50;99.90
25214;DHT22;13160;51.834;4.706;2022-10-16T07:10:18;14.50;99.90
25214;DHT22;13160;51.834;4.706;2022-10-16T07:12:46;14.50;99.90
25214;DHT22;13160;51.834;4.706;2022-10-16T07:15:16;14.50;99.90
25214;DHT22;13160;51.834;4.706;2022-10-16T07:17:44;14.40;99.90
25214;DHT22;13160;51.834;4.706;2022-10-16T07:20:12;14.40;99.90
25214;DHT22;13160;51.834;4.706;2022-10-16T07:22:40;14.40;99.90
25214;DHT22;13160;51.834;4.706;2022-10-16T07:25:09;14.40;99.90
25214;DHT22;13160;51.834;4.706;2022-10-16T07:27:37;14.40;99.90
25214;DHT22;13160;51.834;4.706;2022-10-16T07:30:07;14.40;99.90
25214;DHT22;13160;51.834;4.706;2022-10-16T07:32:37;14.40;99.90
25214;DHT22;13160;51.834;4.706;2022-10-16T07:35:06;14.40;99.90
25214;DHT22;13160;51.834;4.706;2022-10-16T07:37:35;14.40;99.90
25214;DHT22;13160;51.834;4.706;2022-10-16T07:40:07;14.40;99.90
25214;DHT22;13160;51.834;4.706;2022-10-16T07:42:36;14.40;99.90
25214;DHT22;13160;51.834;4.706;2022-10-16T07:45:05;14.40;99.90
25214;DHT22;13160;51.834;4.706;2022-10-16T07:47:34;14.40;99.90
25214;DHT22;13160;51.834;4.706;2022-10-16T07:50:04;14.40;99.90
25214;DHT22;13160;51.834;4.706;2022-10-16T07:52:33;14.40;99.90
25214;DHT22;13160;51.834;4.706;2022-10-16T07:55:03;14.40;99.90
25214;DHT22;13160;51.834;4.706;2022-10-16T07:57:31;14.50;99.90
25214;DHT22;13160;51.834;4.706;2022-10-16T08:00:00;14.50;99.90
25214;DHT22;13160;51.834;4.706;2022-10-16T08:02:28;14.50;99.90
25214;DHT22;13160;51.834;4.706;2022-10-16T08:04:56;14.50;99.90
25214;DHT22;13160;51.834;4.706;2022-10-16T08:07:26;14.50;99.90
25214;DHT22;13160;51.834;4.706;2022-10-16T08:09:54;14.60;99.90
25214;DHT22;13160;51.834;4.706;2022-10-16T08:12:25;14.60;99.90
25214;DHT22;13160;51.834;4.706;2022-10-16T08:14:56;14.60;99.90
25214;DHT22;13160;51.834;4.706;2022-10-16T08:17:32;14.70;99.90
25214;DHT22;13160;51.834;4.706;2022-10-16T08:20:01;14.70;99.90
25214;DHT22;13160;51.834;4.706;2022-10-16T08:22:33;14.80;99.90
25214;DHT22;13160;51.834;4.706;2022-10-16T08:25:01;14.80;99.90
25214;DHT22;13160;51.834;4.706;2022-10-16T08:27:31;14.90;99.90
25214;DHT22;13160;51.834;4.706;2022-10-16T08:30:00;14.90;99.90
25214;DHT22;13160;51.834;4.706;2022-10-16T08:32:30;15.00;99.90
25214;DHT22;13160;51.834;4.706;2022-10-16T08:34:59;15.10;99.90
25214;DHT22;13160;51.834;4.706;2022-10-16T08:37:31;15.10;99.90
25214;DHT22;13160;51.834;4.706;2022-10-16T08:40:00;15.20;99.90
25214;DHT22;13160;51.834;4.706;2022-10-16T08:42:41;15.20;99.90
25214;DHT22;13160;51.834;4.706;2022-10-16T08:45:29;15.30;99.90
25214;DHT22;13160;51.834;4.706;2022-10-16T08:48:09;15.30;99.90
25214;DHT22;13160;51.834;4.706;2022-10-16T08:50:47;15.40;99.90
25214;DHT22;13160;51.834;4.706;2022-10-16T08:53:20;15.50;99.90
25214;DHT22;13160;51.834;4.706;2022-10-16T08:55:53;15.60;99.90
25214;DHT22;13160;51.834;4.706;2022-10-16T08:58:27;15.60;99.90
25214;DHT22;13160;51.834;4.706;2022-10-16T09:00:58;15.60;99.90
25214;DHT22;13160;51.834;4.706;2022-10-16T09:03:42;15.70;99.90
25214;DHT22;13160;51.834;4.706;2022-10-16T09:06:35;15.80;99.90
25214;DHT22;13160;51.834;4.706;2022-10-16T09:09:35;15.90;99.90
25214;DHT22;13160;51.834;4.706;2022-10-16T09:12:22;15.90;99.90
25214;DHT22;13160;51.834;4.706;2022-10-16T09:15:07;16.00;99.90
25214;DHT22;13160;51.834;4.706;2022-10-16T09:17:52;16.00;99.90
25214;DHT22;13160;51.834;4.706;2022-10-16T09:20:32;16.10;99.90
25214;DHT22;13160;51.834;4.706;2022-10-16T09:23:15;16.20;99.90
25214;DHT22;13160;51.834;4.706;2022-10-16T09:25:56;16.20;99.90
25214;DHT22;13160;51.834;4.706;2022-10-16T09:28:29;16.30;99.90
25214;DHT22;13160;51.834;4.706;2022-10-16T09:31:22;16.40;99.90
25214;DHT22;13160;51.834;4.706;2022-10-16T09:34:00;16.50;99.90
25214;DHT22;13160;51.834;4.706;2022-10-16T09:36:49;16.50;99.90
25214;DHT22;13160;51.834;4.706;2022-10-16T09:39:45;16.50;99.90
25214;DHT22;13160;51.834;4.706;2022-10-16T09:42:36;16.60;99.90
25214;DHT22;13160;51.834;4.706;2022-10-16T09:45:30;16.70;99.90
25214;DHT22;13160;51.834;4.706;2022-10-16T09:48:01;16.70;99.90
25214;DHT22;13160;51.834;4.706;2022-10-16T09:50:39;16.70;99.90
25214;DHT22;13160;51.834;4.706;2022-10-16T09:53:11;16.80;99.90
25214;DHT22;13160;51.834;4.706;2022-10-16T09:55:51;16.90;99.90
25214;DHT22;13160;51.834;4.706;2022-10-16T09:58:35;16.90;99.90
25214;DHT22;13160;51.834;4.706;2022-10-16T10:01:35;17.00;99.90
25214;DHT22;13160;51.834;4.706;2022-10-16T10:05:03;17.10;99.90
25214;DHT22;13160;51.834;4.706;2022-10-16T10:12:19;17.30;99.90
25214;DHT22;13160;51.834;4.706;2022-10-16T10:19:47;17.40;99.90
25214;DHT22;13160;51.834;4.706;2022-10-16T10:22:27;17.50;99.90
25214;DHT22;13160;51.834;4.706;2022-10-16T10:25:18;17.50;99.90
25214;DHT22;13160;51.834;4.706;2022-10-16T10:28:28;17.60;99.90
25214;DHT22;13160;51.834;4.706;2022-10-16T10:31:14;17.60;99.90
25214;DHT22;13160;51.834;4.706;2022-10-16T10:33:52;17.70;99.90
25214;DHT22;13160;51.834;4.706;2022-10-16T10:36:29;17.70;99.90
25214;DHT22;13160;51.834;4.706;2022-10-16T10:39:15;17.80;99.90
25214;DHT22;13160;51.834;4.706;2022-10-16T10:42:08;17.80;99.90
25214;DHT22;13160;51.834;4.706;2022-10-16T10:44:57;17.80;99.90
25214;DHT22;13160;51.834;4.706;2022-10-16T10:47:48;17.90;99.90
25214;DHT22;13160;51.834;4.706;2022-10-16T10:50:36;17.90;99.90
25214;DHT22;13160;51.834;4.706;2022-10-16T10:53:21;18.00;99.90
25214;DHT22;13160;51.834;4.706;2022-10-16T10:56:29;18.20;99.90
25214;DHT22;13160;51.834;4.706;2022-10-16T10:59:28;18.30;99.90
25214;DHT22;13160;51.834;4.706;2022-10-16T11:02:06;18.40;99.90
25214;DHT22;13160;51.834;4.706;2022-10-16T11:05:06;18.50;99.90
25214;DHT22;13160;51.834;4.706;2022-10-16T11:07:57;18.60;99.90
25214;DHT22;13160;51.834;4.706;2022-10-16T11:10:44;18.70;99.90
25214;DHT22;13160;51.834;4.706;2022-10-16T11:21:20;18.90;99.90
25214;DHT22;13160;51.834;4.706;2022-10-16T11:24:00;19.00;99.90
25214;DHT22;13160;51.834;4.706;2022-10-16T11:26:38;19.00;99.90
25214;DHT22;13160;51.834;4.706;2022-10-16T11:29:12;19.00;99.90
25214;DHT22;13160;51.834;4.706;2022-10-16T11:31:47;19.10;99.90
25214;DHT22;13160;51.834;4.706;2022-10-16T11:34:23;19.10;99.90
25214;DHT22;13160;51.834;4.706;2022-10-16T11:36:56;19.10;99.90
25214;DHT22;13160;51.834;4.706;2022-10-16T11:39:28;19.20;99.90
25214;DHT22;13160;51.834;4.706;2022-10-16T11:42:04;19.20;99.90
25214;DHT22;13160;51.834;4.706;2022-10-16T11:44:44;19.30;99.90
25214;DHT22;13160;51.834;4.706;2022-10-16T11:47:39;19.30;99.90
25214;DHT22;13160;51.834;4.706;2022-10-16T11:50:30;19.40;99.90
25214;DHT22;13160;51.834;4.706;2022-10-16T11:53:08;19.40;99.90
25214;DHT22;13160;51.834;4.706;2022-10-16T11:55:44;19.50;99.90
25214;DHT22;13160;51.834;4.706;2022-10-16T11:58:23;19.50;99.90
25214;DHT22;13160;51.834;4.706;2022-10-16T12:01:17;19.50;99.90
25214;DHT22;13160;51.834;4.706;2022-10-16T12:06:31;19.50;99.90
25214;DHT22;13160;51.834;4.706;2022-10-16T12:09:04;19.60;99.90
25214;DHT22;13160;51.834;4.706;2022-10-16T12:11:38;19.60;99.50
25214;DHT22;13160;51.834;4.706;2022-10-16T12:14:32;19.60;99.30
25214;DHT22;13160;51.834;4.706;2022-10-16T12:17:33;19.60;99.30
25214;DHT22;13160;51.834;4.706;2022-10-16T12:20:21;19.60;99.30
25214;DHT22;13160;51.834;4.706;2022-10-16T12:22:56;19.60;99.50
25214;DHT22;13160;51.834;4.706;2022-10-16T12:25:36;19.60;99.30
25214;DHT22;13160;51.834;4.706;2022-10-16T12:28:21;19.50;99.00
25214;DHT22;13160;51.834;4.706;2022-10-16T12:30:58;19.50;98.50
25214;DHT22;13160;51.834;4.706;2022-10-16T12:33:30;19.50;98.30
25214;DHT22;13160;51.834;4.706;2022-10-16T12:36:30;19.50;97.90
25214;DHT22;13160;51.834;4.706;2022-10-16T12:39:01;19.50;98.20
25214;DHT22;13160;51.834;4.706;2022-10-16T12:41:32;19.50;98.00
25214;DHT22;13160;51.834;4.706;2022-10-16T12:44:02;19.50;97.80
25214;DHT22;13160;51.834;4.706;2022-10-16T12:46:38;19.50;97.80
25214;DHT22;13160;51.834;4.706;2022-10-16T12:49:22;19.50;97.80
25214;DHT22;13160;51.834;4.706;2022-10-16T12:51:58;19.60;98.30
25214;DHT22;13160;51.834;4.706;2022-10-16T12:54:28;19.50;98.20
25214;DHT22;13160;51.834;4.706;2022-10-16T12:57:21;19.60;98.10
25214;DHT22;13160;51.834;4.706;2022-10-16T13:00:09;19.70;97.90
25214;DHT22;13160;51.834;4.706;2022-10-16T13:06:26;19.90;97.50
25214;DHT22;13160;51.834;4.706;2022-10-16T13:09:14;19.90;97.40
25214;DHT22;13160;51.834;4.706;2022-10-16T13:12:19;20.00;97.20
25214;DHT22;13160;51.834;4.706;2022-10-16T13:15:13;20.00;97.00
25214;DHT22;13160;51.834;4.706;2022-10-16T13:17:57;20.00;96.70
25214;DHT22;13160;51.834;4.706;2022-10-16T13:20:35;20.00;96.80
25214;DHT22;13160;51.834;4.706;2022-10-16T13:23:13;19.90;96.60
25214;DHT22;13160;51.834;4.706;2022-10-16T13:25:58;20.00;96.90
25214;DHT22;13160;51.834;4.706;2022-10-16T13:28:34;19.90;97.10
25214;DHT22;13160;51.834;4.706;2022-10-16T13:31:05;19.90;97.00
25214;DHT22;13160;51.834;4.706;2022-10-16T13:33:35;19.90;97.20
25214;DHT22;13160;51.834;4.706;2022-10-16T13:36:17;20.00;97.00
25214;DHT22;13160;51.834;4.706;2022-10-16T13:38:48;20.00;97.20
25214;DHT22;13160;51.834;4.706;2022-10-16T13:41:28;20.00;97.30
25214;DHT22;13160;51.834;4.706;2022-10-16T13:43:56;20.00;97.20
25214;DHT22;13160;51.834;4.706;2022-10-16T13:46:25;20.00;97.10
25214;DHT22;13160;51.834;4.706;2022-10-16T13:51:53;20.00;97.00
25214;DHT22;13160;51.834;4.706;2022-10-16T13:54:22;20.00;96.80
25214;DHT22;13160;51.834;4.706;2022-10-16T13:56:50;19.90;96.60
25214;DHT22;13160;51.834;4.706;2022-10-16T13:59:35;20.00;96.60
25214;DHT22;13160;51.834;4.706;2022-10-16T14:02:17;19.90;96.50
25214;DHT22;13160;51.834;4.706;2022-10-16T14:04:48;19.90;96.70
25214;DHT22;13160;51.834;4.706;2022-10-16T14:07:29;19.90;96.80
25214;DHT22;13160;51.834;4.706;2022-10-16T14:10:02;19.90;96.90
25214;DHT22;13160;51.834;4.706;2022-10-16T14:12:34;19.90;96.70
25214;DHT22;13160;51.834;4.706;2022-10-16T14:15:21;19.90;96.60
25214;DHT22;13160;51.834;4.706;2022-10-16T14:18:17;19.90;96.60
25214;DHT22;13160;51.834;4.706;2022-10-16T14:20:52;19.80;96.40
25214;DHT22;13160;51.834;4.706;2022-10-16T14:23:46;19.90;96.30
25214;DHT22;13160;51.834;4.706;2022-10-16T14:26:20;19.90;96.60
25214;DHT22;13160;51.834;4.706;2022-10-16T14:29:11;19.80;96.70
25214;DHT22;13160;51.834;4.706;2022-10-16T14:31:55;19.80;96.80
25214;DHT22;13160;51.834;4.706;2022-10-16T14:34:28;19.80;96.90
25214;DHT22;13160;51.834;4.706;2022-10-16T14:37:00;19.70;97.00
25214;DHT22;13160;51.834;4.706;2022-10-16T14:39:39;19.70;97.10
25214;DHT22;13160;51.834;4.706;2022-10-16T14:42:14;19.70;97.30
25214;DHT22;13160;51.834;4.706;2022-10-16T14:44:50;19.70;97.20
25214;DHT22;13160;51.834;4.706;2022-10-16T14:47:24;19.60;97.10
25214;DHT22;13160;51.834;4.706;2022-10-16T14:49:57;19.60;97.20
25214;DHT22;13160;51.834;4.706;2022-10-16T14:52:36;19.70;97.30
25214;DHT22;13160;51.834;4.706;2022-10-16T14:55:24;19.60;97.40
25214;DHT22;13160;51.834;4.706;2022-10-16T14:57:53;19.60;97.40
25214;DHT22;13160;51.834;4.706;2022-10-16T15:00:31;19.60;97.50
25214;DHT22;13160;51.834;4.706;2022-10-16T15:03:03;19.60;97.40
25214;DHT22;13160;51.834;4.706;2022-10-16T15:06:12;19.50;97.30
25214;DHT22;13160;51.834;4.706;2022-10-16T15:08:54;19.60;97.50
25214;DHT22;13160;51.834;4.706;2022-10-16T15:11:27;19.50;97.60
25214;DHT22;13160;51.834;4.706;2022-10-16T15:13:56;19.50;97.50
25214;DHT22;13160;51.834;4.706;2022-10-16T15:16:28;19.40;97.60
25214;DHT22;13160;51.834;4.706;2022-10-16T15:18:57;19.30;97.90
25214;DHT22;13160;51.834;4.706;2022-10-16T15:21:29;19.30;98.10
25214;DHT22;13160;51.834;4.706;2022-10-16T15:24:00;19.20;98.20
25214;DHT22;13160;51.834;4.706;2022-10-16T15:26:33;19.20;98.50
25214;DHT22;13160;51.834;4.706;2022-10-16T15:29:01;19.20;98.60
25214;DHT22;13160;51.834;4.706;2022-10-16T15:31:30;19.10;98.70
25214;DHT22;13160;51.834;4.706;2022-10-16T15:34:17;19.10;98.80
25214;DHT22;13160;51.834;4.706;2022-10-16T15:36:46;19.10;98.70
25214;DHT22;13160;51.834;4.706;2022-10-16T15:39:17;19.00;98.80
25214;DHT22;13160;51.834;4.706;2022-10-16T15:41:52;19.00;99.10
25214;DHT22;13160;51.834;4.706;2022-10-16T15:44:21;19.00;99.40
25214;DHT22;13160;51.834;4.706;2022-10-16T15:47:00;18.90;99.50
25214;DHT22;13160;51.834;4.706;2022-10-16T15:49:29;18.90;99.60
25214;DHT22;13160;51.834;4.706;2022-10-16T15:51:57;18.80;99.90
25214;DHT22;13160;51.834;4.706;2022-10-16T15:54:25;18.70;99.90
25214;DHT22;13160;51.834;4.706;2022-10-16T15:56:55;18.70;99.90
25214;DHT22;13160;51.834;4.706;2022-10-16T15:59:23;18.70;99.90
25214;DHT22;13160;51.834;4.706;2022-10-16T16:01:51;18.60;99.90
25214;DHT22;13160;51.834;4.706;2022-10-16T16:04:20;18.60;99.90
25214;DHT22;13160;51.834;4.706;2022-10-16T16:07:08;18.60;99.90
25214;DHT22;13160;51.834;4.706;2022-10-16T16:09:36;18.50;99.90
25214;DHT22;13160;51.834;4.706;2022-10-16T16:12:07;18.50;99.90
25214;DHT22;13160;51.834;4.706;2022-10-16T16:14:35;18.50;99.90
25214;DHT22;13160;51.834;4.706;2022-10-16T16:47:26;18.00;99.90
25214;DHT22;13160;51.834;4.706;2022-10-16T18:50:39;16.40;99.90
25214;DHT22;13160;51.834;4.706;2022-10-16T18:54:22;16.50;99.90
25214;DHT22;13160;51.834;4.706;2022-10-16T18:57:49;16.40;99.90
25214;DHT22;13160;51.834;4.706;2022-10-16T19:01:23;16.40;99.90
25214;DHT22;13160;51.834;4.706;2022-10-16T19:15:59;16.30;99.90
25214;DHT22;13160;51.834;4.706;2022-10-16T19:21:42;16.30;99.90
25214;DHT22;13160;51.834;4.706;2022-10-16T19:32:33;16.30;99.90
25214;DHT22;13160;51.834;4.706;2022-10-16T20:13:24;16.20;99.90
25214;DHT22;13160;51.834;4.706;2022-10-16T20:42:22;16.10;99.90
25214;DHT22;13160;51.834;4.706;2022-10-16T20:45:28;16.00;99.90
25214;DHT22;13160;51.834;4.706;2022-10-16T20:48:18;16.00;99.90
25214;DHT22;13160;51.834;4.706;2022-10-16T20:50:51;16.10;99.90
25214;DHT22;13160;51.834;4.706;2022-10-16T20:53:30;16.10;99.90
25214;DHT22;13160;51.834;4.706;2022-10-16T20:56:05;16.10;99.90
25214;DHT22;13160;51.834;4.706;2022-10-16T20:58:46;16.10;99.90
25214;DHT22;13160;51.834;4.706;2022-10-16T21:01:23;16.20;99.90
25214;DHT22;13160;51.834;4.706;2022-10-16T21:04:08;16.10;99.90